Sunny Williams — WDE4940 — position and weather

sailwx.info

Track history (hours):
 
Tides and Currents Weather Stations Pressure Air Temp Water Temp Dewpoint Dewpoint Depression Visibility Wind Speed Wind Dir Waves Ship Positions

Sunny Williams

Owner: Marine Oil Service of New York, LLC, Elizabeth, NJ. More information available from US FCC via Universal Licensing System.

Last reported at 2018-Jun-03 17:49 UTC. Time now 2018-Jun-21 18:15 UTC.
Position N 40°40' W 074°09'.
Warning: this ship's position is 18 days out of date.

Type: Tanker. MMSI: 367359930.

Date/timePositionNaut miles runAvg speedWind from/ knotsBaromVisibWave heightAir tempDewpointWater temp
2018-Jun-03 17:49N 40°40' W 074°09'0 0.0
2018-Jun-03 16:08N 40°40' W 074°09'1 5.9
2018-Jun-03 15:59N 40°39' W 074°09'4 7.9
2018-Jun-03 15:30N 40°39' W 074°04'0 0.1
2018-Jun-03 15:00N 40°38' W 074°04'0 0.0
2018-Jun-03 14:29N 40°38' W 074°04'0 0.1
2018-Jun-03 14:00N 40°38' W 074°04'5 0.2
2018-Jun-02 14:36N 40°41' W 074°09'2 0.1
2018-Jun-01 17:57N 40°39' W 074°09'3 6.8
2018-Jun-01 17:27N 40°39' W 074°04'1 1.2
2018-Jun-01 17:01N 40°40' W 074°04'0 0.0
2018-Jun-01 16:30N 40°40' W 074°04'0 0.0
2018-Jun-01 16:01N 40°40' W 074°04'0 0.0
2018-Jun-01 15:29N 40°40' W 074°04'0 0.2
2018-Jun-01 14:59N 40°40' W 074°04'0 0.2
2018-Jun-01 14:30N 40°40' W 074°04'0 0.0
2018-Jun-01 14:00N 40°40' W 074°04'6 0.2
2018-May-30 23:02N 40°38' W 074°12'3 7.0
2018-May-30 22:38N 40°40' W 074°09'1 0.4
2018-May-30 19:09N 40°41' W 074°09'  
2018-May-25 20:16N 40°40' W 074°09'1 1.6
2018-May-25 19:26N 40°41' W 074°09'0 0.1
2018-May-25 18:52N 40°41' W 074°09'0 0.0
2018-May-25 18:29N 40°41' W 074°09'0 0.1
2018-May-25 18:00N 40°41' W 074°09'0 0.1
2018-May-25 17:30N 40°41' W 074°09'0 0.0
2018-May-25 17:00N 40°41' W 074°09'0 0.1
2018-May-25 16:27N 40°41' W 074°09'0 0.1
2018-May-25 16:00N 40°41' W 074°09'0 0.0
2018-May-25 14:52N 40°41' W 074°09'0 0.0
2018-May-25 14:28N 40°41' W 074°09'  
Track history (hours):
 
Tides and Currents Weather Stations Pressure Air Temp Water Temp Dewpoint Dewpoint Depression Visibility Wind Speed Wind Dir Waves Ship Positions

Sunny Williams

Owner: Marine Oil Service of New York, LLC, Elizabeth, NJ. More information available from US FCC via Universal Licensing System.

Last reported at 2018-Jun-03 17:49 UTC. Time now 2018-Jun-21 18:15 UTC.
Position N 40°40' W 074°09'.
Warning: this ship's position is 18 days out of date.

Type: Tanker. MMSI: 367359930.

Date/timePositionNaut miles runAvg speedWind from/ knotsBaromVisibWave heightAir tempDewpointWater temp
2018-Jun-03 17:49N 40°40' W 074°09'0 0.0
2018-Jun-03 16:08N 40°40' W 074°09'1 5.9
2018-Jun-03 15:59N 40°39' W 074°09'4 7.9
2018-Jun-03 15:30N 40°39' W 074°04'0 0.1
2018-Jun-03 15:00N 40°38' W 074°04'0 0.0
2018-Jun-03 14:29N 40°38' W 074°04'0 0.1
2018-Jun-03 14:00N 40°38' W 074°04'5 0.2
2018-Jun-02 14:36N 40°41' W 074°09'2 0.1
2018-Jun-01 17:57N 40°39' W 074°09'3 6.8
2018-Jun-01 17:27N 40°39' W 074°04'1 1.2
2018-Jun-01 17:01N 40°40' W 074°04'0 0.0
2018-Jun-01 16:30N 40°40' W 074°04'0 0.0
2018-Jun-01 16:01N 40°40' W 074°04'0 0.0
2018-Jun-01 15:29N 40°40' W 074°04'0 0.2
2018-Jun-01 14:59N 40°40' W 074°04'0 0.2
2018-Jun-01 14:30N 40°40' W 074°04'0 0.0
2018-Jun-01 14:00N 40°40' W 074°04'6 0.2
2018-May-30 23:02N 40°38' W 074°12'3 7.0
2018-May-30 22:38N 40°40' W 074°09'1 0.4
2018-May-30 19:09N 40°41' W 074°09'  
2018-May-25 20:16N 40°40' W 074°09'1 1.6
2018-May-25 19:26N 40°41' W 074°09'0 0.1
2018-May-25 18:52N 40°41' W 074°09'0 0.0
2018-May-25 18:29N 40°41' W 074°09'0 0.1
2018-May-25 18:00N 40°41' W 074°09'0 0.1
2018-May-25 17:30N 40°41' W 074°09'0 0.0
2018-May-25 17:00N 40°41' W 074°09'0 0.1
2018-May-25 16:27N 40°41' W 074°09'0 0.1
2018-May-25 16:00N 40°41' W 074°09'0 0.0
2018-May-25 14:52N 40°41' W 074°09'0 0.0
2018-May-25 14:28N 40°41' W 074°09'  

Dump ship's entire track history